Old Orchard Beach, Maine
Current Conditions -  °F | °C
As of 10:51 AM on Friday 31 Oct 2014 (Local Time) from KPWM Reporting Station
Broken Clouds Broken Clouds  
Wind Chill: 11°   Ceiling: 6000
Heat Index: 11°   Visibility: 10mi
Dew Point:   Wind: 5mph
Humidity: 50%   Direction: NA
Pressure: 30.05"   Gusts: NA
Location:  43.52°N, 70.38°W
Report Text: KPWM 311451Z VRB04KT 10SM BKN060 11/01 A3005 RMK AO2 SLP177 T01060006 58003
Loading
Personal Weather Stations






























Interactive Weather Map
Tropical Storm Tracking
New forecast layout! Learn more

10-Day Weather Forecast

Advertisements
Track Severe Weather on mobile